California Hornblower — WDB8632 — position and weather

sailwx.info

Track history (hours):
 
Tides and Currents Weather Stations Pressure Air Temp Water Temp Dewpoint Dewpoint Depression Visibility Wind Speed Wind Dir Waves Ship Positions

California Hornblower

Owner: hornblower cruises and events, san francisco, CA. More information available from US FCC via Universal Licensing System and Coast Guard Vessel Documentation Center.

Last reported at 2018-Apr-22 17:59 UTC. Time now 2018-Apr-22 18:14 UTC.
Position N 37°48' W 122°24'.

Length 54 m; draft 4.8 m.

Type: Passenger vessel. MMSI: 366961920.

Date/timePositionNaut miles runAvg speedWind from/ knotsBaromVisibWave heightAir tempDewpointWater temp
2018-Apr-22 17:59N 37°48' W 122°24'0 0.0
2018-Apr-22 17:24N 37°48' W 122°24'0 0.0
2018-Apr-22 06:59N 37°48' W 122°24'0 0.0
2018-Apr-22 06:30N 37°48' W 122°24'0 0.0
2018-Apr-22 06:00N 37°48' W 122°24'0 0.0
2018-Apr-22 05:30N 37°48' W 122°24'1 3.0
2018-Apr-22 05:00N 37°47' W 122°23'2 4.7
2018-Apr-22 04:30N 37°49' W 122°21'2 3.4
2018-Apr-22 04:00N 37°50' W 122°23'4 8.0
2018-Apr-22 03:30N 37°50' W 122°28'2 3.9
2018-Apr-22 03:00N 37°49' W 122°25'2 3.1
2018-Apr-22 02:27N 37°48' W 122°24'0 0.0
2018-Apr-22 02:00N 37°48' W 122°24'0 0.0
2018-Apr-22 01:28N 37°48' W 122°24'0 0.0
2018-Apr-22 01:00N 37°48' W 122°24'0 0.0
2018-Apr-22 00:27N 37°48' W 122°24'0 0.0
2018-Apr-22 00:00N 37°48' W 122°24'0 0.0
2018-Apr-21 21:12N 37°48' W 122°24'0 0.0
2018-Apr-21 21:00N 37°48' W 122°24'0 0.0
2018-Apr-21 20:30N 37°48' W 122°24'1 2.0
2018-Apr-21 20:00N 37°49' W 122°24'3 6.7
2018-Apr-21 19:31N 37°49' W 122°28'3 5.6
2018-Apr-21 19:00N 37°49' W 122°25'1 2.6
2018-Apr-21 18:30N 37°48' W 122°24'0 0.0
2018-Apr-21 18:00N 37°48' W 122°24'0 0.0
2018-Apr-21 17:30N 37°48' W 122°24'0 0.0
2018-Apr-21 06:15N 37°48' W 122°24'0 0.0
2018-Apr-21 06:00N 37°48' W 122°24'0 0.0
2018-Apr-21 05:30N 37°48' W 122°24'2 3.0
2018-Apr-21 05:00N 37°47' W 122°23'3 5.4
2018-Apr-21 04:30N 37°49' W 122°22'3 6.5
2018-Apr-21 04:00N 37°50' W 122°26'2 4.3
2018-Apr-21 03:30N 37°52' W 122°27'2 4.8
2018-Apr-21 03:00N 37°50' W 122°26'3 4.7
2018-Apr-21 02:28N 37°48' W 122°24'0 0.0
2018-Apr-21 01:58N 37°48' W 122°24'0 0.0
2018-Apr-21 01:28N 37°48' W 122°24'0 0.0
2018-Apr-20 21:01N 37°48' W 122°24'0 0.0
2018-Apr-20 21:00N 37°48' W 122°24'1 1.5
2018-Apr-20 20:31N 37°48' W 122°23'3 6.7
2018-Apr-20 20:00N 37°50' W 122°26'1 2.1
2018-Apr-20 19:31N 37°49' W 122°27'3 5.6
2018-Apr-20 19:01N 37°48' W 122°24'0 0.0
2018-Apr-20 18:30N 37°48' W 122°24'0 0.0
2018-Apr-20 04:31N 37°48' W 122°24'0 0.0
2018-Apr-20 04:30N 37°48' W 122°24'0 0.8
2018-Apr-20 04:01N 37°48' W 122°24'3 5.5
2018-Apr-20 03:30N 37°50' W 122°26'2 4.0
2018-Apr-20 03:01N 37°52' W 122°26'2 4.7
2018-Apr-20 02:31N 37°50' W 122°27'3 5.6
2018-Apr-20 01:56N 37°48' W 122°24'0 0.0
2018-Apr-20 01:29N 37°48' W 122°24'0 0.0
2018-Apr-20 00:59N 37°48' W 122°24'0 0.0
2018-Apr-19 04:19N 37°48' W 122°24'0 0.2
2018-Apr-19 04:01N 37°48' W 122°24'0 0.2
2018-Apr-19 03:29N 37°48' W 122°24'0 0.3
2018-Apr-19 02:59N 37°48' W 122°24'0 0.0
2018-Apr-19 02:30N 37°48' W 122°24'0 0.0
2018-Apr-19 01:58N 37°48' W 122°24'0 0.0
2018-Apr-19 01:26N 37°48' W 122°24'0 0.4
2018-Apr-19 00:53N 37°48' W 122°24'0 0.2
2018-Apr-19 00:30N 37°48' W 122°24'0 0.3
2018-Apr-18 23:59N 37°48' W 122°24'  
2018-Apr-16 04:50N 37°48' W 122°24'0 0.0
2018-Apr-16 04:30N 37°48' W 122°24'1 1.5
2018-Apr-16 04:00N 37°48' W 122°23'3 6.9
2018-Apr-16 03:30N 37°50' W 122°26'2 3.9
2018-Apr-16 03:00N 37°52' W 122°25'4 7.8
2018-Apr-16 02:30N 37°49' W 122°22'2 4.5
2018-Apr-16 02:00N 37°48' W 122°24'0 0.0
2018-Apr-16 01:29N 37°48' W 122°24'0 0.0
2018-Apr-16 01:00N 37°48' W 122°24'0 0.0
2018-Apr-16 00:25N 37°48' W 122°24'0 0.0
2018-Apr-15 21:08N 37°48' W 122°24'0 0.0
2018-Apr-15 21:00N 37°48' W 122°24'0 0.0
2018-Apr-15 20:30N 37°48' W 122°24'1 2.0
2018-Apr-15 20:00N 37°48' W 122°23'3 6.6
2018-Apr-15 19:30N 37°50' W 122°25'1 2.8
2018-Apr-15 19:00N 37°49' W 122°27'3 5.6
2018-Apr-15 18:30N 37°48' W 122°24'0 0.0
2018-Apr-15 17:58N 37°48' W 122°24'0 0.0
2018-Apr-15 17:24N 37°48' W 122°24'0 0.0
2018-Apr-15 16:58N 37°48' W 122°24'0 0.0
2018-Apr-15 06:24N 37°48' W 122°24'0 0.0
2018-Apr-15 06:00N 37°48' W 122°24'1 1.7
2018-Apr-15 05:30N 37°48' W 122°23'1 1.5
2018-Apr-15 05:00N 37°48' W 122°22'2 4.4
2018-Apr-15 04:30N 37°49' W 122°24'3 6.4
2018-Apr-15 04:00N 37°49' W 122°28'2 3.7
2018-Apr-15 03:30N 37°51' W 122°29'2 4.2
2018-Apr-15 03:00N 37°52' W 122°27'3 5.4
2018-Apr-15 02:30N 37°50' W 122°25'2 4.6
2018-Apr-15 01:59N 37°48' W 122°24'0 0.0
2018-Apr-15 01:29N 37°48' W 122°24'0 0.0
2018-Apr-15 00:56N 37°48' W 122°24'0 0.0
2018-Apr-15 00:23N 37°48' W 122°24'0 0.0
2018-Apr-15 00:00N 37°48' W 122°24'0 0.0
2018-Apr-14 21:24N 37°48' W 122°24'0 0.0
2018-Apr-14 21:00N 37°48' W 122°24'0 0.0
2018-Apr-14 20:30N 37°48' W 122°24'1 1.3
2018-Apr-14 20:00N 37°47' W 122°23'4 7.1
2018-Apr-14 19:30N 37°50' W 122°26'1 1.9
2018-Apr-14 19:00N 37°49' W 122°26'2 4.5
2018-Apr-14 18:30N 37°48' W 122°24'0 0.0
2018-Apr-14 05:29N 37°48' W 122°24'1 1.2
2018-Apr-14 05:00N 37°48' W 122°23'1 1.1
2018-Apr-14 04:30N 37°48' W 122°24'0 0.6
2018-Apr-14 04:00N 37°48' W 122°23'1 1.9
2018-Apr-14 03:30N 37°47' W 122°22'4 7.4
2018-Apr-14 03:00N 37°50' W 122°26'1 2.3
2018-Apr-14 02:30N 37°49' W 122°26'2 4.2
2018-Apr-14 01:57N 37°48' W 122°24'0 0.4
2018-Apr-14 01:25N 37°48' W 122°23'0 0.4
2018-Apr-14 00:53N 37°48' W 122°24'0 0.0
2018-Apr-14 00:30N 37°48' W 122°24'0 0.0
2018-Apr-13 21:07N 37°48' W 122°24'0 0.0
2018-Apr-13 21:00N 37°48' W 122°24'1 1.8
2018-Apr-13 20:30N 37°49' W 122°24'2 5.0
2018-Apr-13 20:00N 37°50' W 122°27'1 1.7
2018-Apr-13 19:30N 37°49' W 122°26'2 4.9
2018-Apr-13 19:00N 37°48' W 122°24'0 0.0
2018-Apr-13 18:30N 37°48' W 122°24'0 0.0
2018-Apr-13 17:59N 37°48' W 122°24'0 0.0
2018-Apr-13 17:30N 37°48' W 122°24'0 0.0
2018-Apr-13 05:32N 37°48' W 122°24'0 0.0
2018-Apr-13 05:30N 37°48' W 122°24'0 0.0
2018-Apr-13 05:00N 37°48' W 122°24'0 0.0
2018-Apr-13 04:30N 37°48' W 122°24'1 1.5
2018-Apr-13 04:00N 37°47' W 122°23'3 6.0
2018-Apr-13 03:30N 37°49' W 122°26'3 5.8
2018-Apr-13 03:00N 37°52' W 122°26'3 6.6
2018-Apr-13 02:30N 37°50' W 122°23'2 3.8
2018-Apr-13 02:00N 37°48' W 122°24'0 0.0
2018-Apr-13 01:30N 37°48' W 122°24'0 0.0
2018-Apr-13 01:00N 37°48' W 122°24'0 0.0
2018-Apr-13 00:30N 37°48' W 122°24'0 0.0
2018-Apr-12 23:56N 37°48' W 122°24'0 0.0
2018-Apr-12 19:47N 37°48' W 122°24'0 0.0
2018-Apr-12 19:30N 37°48' W 122°24'0 0.4
2018-Apr-12 19:00N 37°48' W 122°24'1 1.9
2018-Apr-12 18:30N 37°49' W 122°24'0 0.1
2018-Apr-12 18:00N 37°49' W 122°24'  
Track history (hours):
 
Tides and Currents Weather Stations Pressure Air Temp Water Temp Dewpoint Dewpoint Depression Visibility Wind Speed Wind Dir Waves Ship Positions

California Hornblower

Owner: hornblower cruises and events, san francisco, CA. More information available from US FCC via Universal Licensing System and Coast Guard Vessel Documentation Center.

Last reported at 2018-Apr-22 17:59 UTC. Time now 2018-Apr-22 18:14 UTC.
Position N 37°48' W 122°24'.

Length 54 m; draft 4.8 m.

Type: Passenger vessel. MMSI: 366961920.

Date/timePositionNaut miles runAvg speedWind from/ knotsBaromVisibWave heightAir tempDewpointWater temp
2018-Apr-22 17:59N 37°48' W 122°24'0 0.0
2018-Apr-22 17:24N 37°48' W 122°24'0 0.0
2018-Apr-22 06:59N 37°48' W 122°24'0 0.0
2018-Apr-22 06:30N 37°48' W 122°24'0 0.0
2018-Apr-22 06:00N 37°48' W 122°24'0 0.0
2018-Apr-22 05:30N 37°48' W 122°24'1 3.0
2018-Apr-22 05:00N 37°47' W 122°23'2 4.7
2018-Apr-22 04:30N 37°49' W 122°21'2 3.4
2018-Apr-22 04:00N 37°50' W 122°23'4 8.0
2018-Apr-22 03:30N 37°50' W 122°28'2 3.9
2018-Apr-22 03:00N 37°49' W 122°25'2 3.1
2018-Apr-22 02:27N 37°48' W 122°24'0 0.0
2018-Apr-22 02:00N 37°48' W 122°24'0 0.0
2018-Apr-22 01:28N 37°48' W 122°24'0 0.0
2018-Apr-22 01:00N 37°48' W 122°24'0 0.0
2018-Apr-22 00:27N 37°48' W 122°24'0 0.0
2018-Apr-22 00:00N 37°48' W 122°24'0 0.0
2018-Apr-21 21:12N 37°48' W 122°24'0 0.0
2018-Apr-21 21:00N 37°48' W 122°24'0 0.0
2018-Apr-21 20:30N 37°48' W 122°24'1 2.0
2018-Apr-21 20:00N 37°49' W 122°24'3 6.7
2018-Apr-21 19:31N 37°49' W 122°28'3 5.6
2018-Apr-21 19:00N 37°49' W 122°25'1 2.6
2018-Apr-21 18:30N 37°48' W 122°24'0 0.0
2018-Apr-21 18:00N 37°48' W 122°24'0 0.0
2018-Apr-21 17:30N 37°48' W 122°24'0 0.0
2018-Apr-21 06:15N 37°48' W 122°24'0 0.0
2018-Apr-21 06:00N 37°48' W 122°24'0 0.0
2018-Apr-21 05:30N 37°48' W 122°24'2 3.0
2018-Apr-21 05:00N 37°47' W 122°23'3 5.4
2018-Apr-21 04:30N 37°49' W 122°22'3 6.5
2018-Apr-21 04:00N 37°50' W 122°26'2 4.3
2018-Apr-21 03:30N 37°52' W 122°27'2 4.8
2018-Apr-21 03:00N 37°50' W 122°26'3 4.7
2018-Apr-21 02:28N 37°48' W 122°24'0 0.0
2018-Apr-21 01:58N 37°48' W 122°24'0 0.0
2018-Apr-21 01:28N 37°48' W 122°24'0 0.0
2018-Apr-20 21:01N 37°48' W 122°24'0 0.0
2018-Apr-20 21:00N 37°48' W 122°24'1 1.5
2018-Apr-20 20:31N 37°48' W 122°23'3 6.7
2018-Apr-20 20:00N 37°50' W 122°26'1 2.1
2018-Apr-20 19:31N 37°49' W 122°27'3 5.6
2018-Apr-20 19:01N 37°48' W 122°24'0 0.0
2018-Apr-20 18:30N 37°48' W 122°24'0 0.0
2018-Apr-20 04:31N 37°48' W 122°24'0 0.0
2018-Apr-20 04:30N 37°48' W 122°24'0 0.8
2018-Apr-20 04:01N 37°48' W 122°24'3 5.5
2018-Apr-20 03:30N 37°50' W 122°26'2 4.0
2018-Apr-20 03:01N 37°52' W 122°26'2 4.7
2018-Apr-20 02:31N 37°50' W 122°27'3 5.6
2018-Apr-20 01:56N 37°48' W 122°24'0 0.0
2018-Apr-20 01:29N 37°48' W 122°24'0 0.0
2018-Apr-20 00:59N 37°48' W 122°24'0 0.0
2018-Apr-19 04:19N 37°48' W 122°24'0 0.2
2018-Apr-19 04:01N 37°48' W 122°24'0 0.2
2018-Apr-19 03:29N 37°48' W 122°24'0 0.3
2018-Apr-19 02:59N 37°48' W 122°24'0 0.0
2018-Apr-19 02:30N 37°48' W 122°24'0 0.0
2018-Apr-19 01:58N 37°48' W 122°24'0 0.0
2018-Apr-19 01:26N 37°48' W 122°24'0 0.4
2018-Apr-19 00:53N 37°48' W 122°24'0 0.2
2018-Apr-19 00:30N 37°48' W 122°24'0 0.3
2018-Apr-18 23:59N 37°48' W 122°24'  
2018-Apr-16 04:50N 37°48' W 122°24'0 0.0
2018-Apr-16 04:30N 37°48' W 122°24'1 1.5
2018-Apr-16 04:00N 37°48' W 122°23'3 6.9
2018-Apr-16 03:30N 37°50' W 122°26'2 3.9
2018-Apr-16 03:00N 37°52' W 122°25'4 7.8
2018-Apr-16 02:30N 37°49' W 122°22'2 4.5
2018-Apr-16 02:00N 37°48' W 122°24'0 0.0
2018-Apr-16 01:29N 37°48' W 122°24'0 0.0
2018-Apr-16 01:00N 37°48' W 122°24'0 0.0
2018-Apr-16 00:25N 37°48' W 122°24'0 0.0
2018-Apr-15 21:08N 37°48' W 122°24'0 0.0
2018-Apr-15 21:00N 37°48' W 122°24'0 0.0
2018-Apr-15 20:30N 37°48' W 122°24'1 2.0
2018-Apr-15 20:00N 37°48' W 122°23'3 6.6
2018-Apr-15 19:30N 37°50' W 122°25'1 2.8
2018-Apr-15 19:00N 37°49' W 122°27'3 5.6
2018-Apr-15 18:30N 37°48' W 122°24'0 0.0
2018-Apr-15 17:58N 37°48' W 122°24'0 0.0
2018-Apr-15 17:24N 37°48' W 122°24'0 0.0
2018-Apr-15 16:58N 37°48' W 122°24'0 0.0
2018-Apr-15 06:24N 37°48' W 122°24'0 0.0
2018-Apr-15 06:00N 37°48' W 122°24'1 1.7
2018-Apr-15 05:30N 37°48' W 122°23'1 1.5
2018-Apr-15 05:00N 37°48' W 122°22'2 4.4
2018-Apr-15 04:30N 37°49' W 122°24'3 6.4
2018-Apr-15 04:00N 37°49' W 122°28'2 3.7
2018-Apr-15 03:30N 37°51' W 122°29'2 4.2
2018-Apr-15 03:00N 37°52' W 122°27'3 5.4
2018-Apr-15 02:30N 37°50' W 122°25'2 4.6
2018-Apr-15 01:59N 37°48' W 122°24'0 0.0
2018-Apr-15 01:29N 37°48' W 122°24'0 0.0
2018-Apr-15 00:56N 37°48' W 122°24'0 0.0
2018-Apr-15 00:23N 37°48' W 122°24'0 0.0
2018-Apr-15 00:00N 37°48' W 122°24'0 0.0
2018-Apr-14 21:24N 37°48' W 122°24'0 0.0
2018-Apr-14 21:00N 37°48' W 122°24'0 0.0
2018-Apr-14 20:30N 37°48' W 122°24'1 1.3
2018-Apr-14 20:00N 37°47' W 122°23'4 7.1
2018-Apr-14 19:30N 37°50' W 122°26'1 1.9
2018-Apr-14 19:00N 37°49' W 122°26'2 4.5
2018-Apr-14 18:30N 37°48' W 122°24'0 0.0
2018-Apr-14 05:29N 37°48' W 122°24'1 1.2
2018-Apr-14 05:00N 37°48' W 122°23'1 1.1
2018-Apr-14 04:30N 37°48' W 122°24'0 0.6
2018-Apr-14 04:00N 37°48' W 122°23'1 1.9
2018-Apr-14 03:30N 37°47' W 122°22'4 7.4
2018-Apr-14 03:00N 37°50' W 122°26'1 2.3
2018-Apr-14 02:30N 37°49' W 122°26'2 4.2
2018-Apr-14 01:57N 37°48' W 122°24'0 0.4
2018-Apr-14 01:25N 37°48' W 122°23'0 0.4
2018-Apr-14 00:53N 37°48' W 122°24'0 0.0
2018-Apr-14 00:30N 37°48' W 122°24'0 0.0
2018-Apr-13 21:07N 37°48' W 122°24'0 0.0
2018-Apr-13 21:00N 37°48' W 122°24'1 1.8
2018-Apr-13 20:30N 37°49' W 122°24'2 5.0
2018-Apr-13 20:00N 37°50' W 122°27'1 1.7
2018-Apr-13 19:30N 37°49' W 122°26'2 4.9
2018-Apr-13 19:00N 37°48' W 122°24'0 0.0
2018-Apr-13 18:30N 37°48' W 122°24'0 0.0
2018-Apr-13 17:59N 37°48' W 122°24'0 0.0
2018-Apr-13 17:30N 37°48' W 122°24'0 0.0
2018-Apr-13 05:32N 37°48' W 122°24'0 0.0
2018-Apr-13 05:30N 37°48' W 122°24'0 0.0
2018-Apr-13 05:00N 37°48' W 122°24'0 0.0
2018-Apr-13 04:30N 37°48' W 122°24'1 1.5
2018-Apr-13 04:00N 37°47' W 122°23'3 6.0
2018-Apr-13 03:30N 37°49' W 122°26'3 5.8
2018-Apr-13 03:00N 37°52' W 122°26'3 6.6
2018-Apr-13 02:30N 37°50' W 122°23'2 3.8
2018-Apr-13 02:00N 37°48' W 122°24'0 0.0
2018-Apr-13 01:30N 37°48' W 122°24'0 0.0
2018-Apr-13 01:00N 37°48' W 122°24'0 0.0
2018-Apr-13 00:30N 37°48' W 122°24'0 0.0
2018-Apr-12 23:56N 37°48' W 122°24'0 0.0
2018-Apr-12 19:47N 37°48' W 122°24'0 0.0
2018-Apr-12 19:30N 37°48' W 122°24'0 0.4
2018-Apr-12 19:00N 37°48' W 122°24'1 1.9
2018-Apr-12 18:30N 37°49' W 122°24'0 0.1
2018-Apr-12 18:00N 37°49' W 122°24'  

Dump ship's entire track history